Time;durP1;ratioP1;P1;durP2;ratioP2;P2;SDS_P1;SDS_P2;PMS_P1;PMS_P2;Temp;Humidity;BMP_temperature;BMP_pressure;BME280_temperature;BME280_humidity;BME280_pressure;Samples;Min_cycle;Max_cycle;Signal;HPM_P1;HPM_P2
2024/03/05 00:00:10;;;;;;;48.85;22.88;;;;;;;;;;4969288;28;20051;-77
2024/03/05 00:02:41;;;;;;;48.90;21.75;;;;;;;;;;4970268;28;20082;-78
2024/03/05 00:05:08;;;;;;;46.97;22.77;;;;;;;;;;4950684;29;20097;-78
2024/03/05 00:07:38;;;;;;;51.10;23.80;;;;;;;;;;4948245;29;20048;-79
2024/03/05 00:10:05;;;;;;;41.47;19.02;;;;;;;;;;4950386;29;20051;-78
2024/03/05 00:12:33;;;;;;;40.55;20.77;;;;;;;;;;4948275;29;20063;-78
2024/03/05 00:15:00;;;;;;;46.00;21.13;;;;;;;;;;4985972;28;20082;-78
2024/03/05 00:17:26;;;;;;;42.88;21.08;;;;;;;;;;4950261;29;20051;-78
2024/03/05 00:19:53;;;;;;;45.40;21.30;;;;;;;;;;4969445;28;20047;-78
2024/03/05 00:22:20;;;;;;;43.20;20.83;;;;;;;;;;4987067;28;20046;-77
2024/03/05 00:24:46;;;;;;;44.53;21.13;;;;;;;;;;4971154;28;20059;-77
2024/03/05 00:27:13;;;;;;;45.85;22.02;;;;;;;;;;4956858;29;20054;-76
2024/03/05 00:29:41;;;;;;;45.38;20.73;;;;;;;;;;4973715;28;20043;-78
2024/03/05 00:32:07;;;;;;;44.85;20.30;;;;;;;;;;4974661;29;20059;-78
2024/03/05 00:34:34;;;;;;;47.10;21.92;;;;;;;;;;4976002;28;20046;-78
2024/03/05 00:37:00;;;;;;;41.60;19.85;;;;;;;;;;4967402;28;20090;-77
2024/03/05 00:39:27;;;;;;;46.00;21.63;;;;;;;;;;4966648;28;20055;-78
2024/03/05 00:41:54;;;;;;;47.50;22.02;;;;;;;;;;4965528;28;20079;-78
2024/03/05 00:44:20;;;;;;;44.88;21.48;;;;;;;;;;4959343;28;20047;-78
2024/03/05 00:46:47;;;;;;;44.22;22.77;;;;;;;;;;4982061;28;20075;-79
2024/03/05 00:49:14;;;;;;;48.58;22.02;;;;;;;;;;4944544;29;20044;-79
2024/03/05 00:51:41;;;;;;;49.92;22.02;;;;;;;;;;4966012;29;20055;-79
2024/03/05 00:54:08;;;;;;;48.25;22.73;;;;;;;;;;4948849;29;20062;-79
2024/03/05 00:56:34;;;;;;;42.17;22.00;;;;;;;;;;4948688;29;20056;-77
2024/03/05 00:59:01;;;;;;;44.47;21.20;;;;;;;;;;4974829;28;20047;-77
2024/03/05 01:01:27;;;;;;;45.92;21.15;;;;;;;;;;4949078;29;20052;-77
2024/03/05 01:03:55;;;;;;;46.55;22.90;;;;;;;;;;4954116;29;20051;-78
2024/03/05 01:06:22;;;;;;;47.92;22.05;;;;;;;;;;4957525;29;20048;-77
2024/03/05 01:08:48;;;;;;;49.75;21.80;;;;;;;;;;4959955;29;20051;-78
2024/03/05 01:11:15;;;;;;;41.00;20.90;;;;;;;;;;4978169;29;20074;-78
2024/03/05 01:13:41;;;;;;;51.60;23.42;;;;;;;;;;4975704;28;20118;-79
2024/03/05 01:16:09;;;;;;;43.72;21.92;;;;;;;;;;4974727;28;20055;-79
2024/03/05 01:18:36;;;;;;;42.05;20.80;;;;;;;;;;4953288;29;20056;-78
2024/03/05 01:21:05;;;;;;;44.85;22.15;;;;;;;;;;4952979;29;20048;-77
2024/03/05 01:23:33;;;;;;;46.63;21.83;;;;;;;;;;4949368;29;20442;-79
2024/03/05 01:26:00;;;;;;;50.17;21.52;;;;;;;;;;4952298;29;20060;-78
2024/03/05 01:28:28;;;;;;;50.90;23.02;;;;;;;;;;4956743;29;20110;-77
2024/03/05 01:30:54;;;;;;;55.95;23.33;;;;;;;;;;4996007;28;20119;-79
2024/03/05 01:33:22;;;;;;;50.30;22.13;;;;;;;;;;4955030;29;20055;-79
2024/03/05 01:35:51;;;;;;;50.15;22.05;;;;;;;;;;4955048;29;20056;-79
2024/03/05 01:38:17;;;;;;;47.95;21.88;;;;;;;;;;4952715;29;20084;-78
2024/03/05 01:40:44;;;;;;;50.38;22.42;;;;;;;;;;4969434;28;20052;-79
2024/03/05 01:43:11;;;;;;;49.50;22.33;;;;;;;;;;4954111;29;20105;-78
2024/03/05 01:45:38;;;;;;;50.08;22.35;;;;;;;;;;4954166;29;20058;-79
2024/03/05 01:48:05;;;;;;;49.28;21.63;;;;;;;;;;4955879;29;20059;-78
2024/03/05 01:50:37;;;;;;;53.20;23.80;;;;;;;;;;4971685;28;20065;-78
2024/03/05 01:53:04;;;;;;;47.75;21.30;;;;;;;;;;4958614;29;20114;-77
2024/03/05 01:55:31;;;;;;;43.97;20.23;;;;;;;;;;4954777;29;20083;-78
2024/03/05 01:57:57;;;;;;;45.85;21.27;;;;;;;;;;4976012;28;20066;-80
2024/03/05 02:00:24;;;;;;;47.95;22.25;;;;;;;;;;4953898;29;20055;-78
2024/03/05 02:02:50;;;;;;;42.25;21.08;;;;;;;;;;4956495;29;20067;-79
2024/03/05 02:05:17;;;;;;;40.20;20.42;;;;;;;;;;4943640;29;20047;-77
2024/03/05 02:07:44;;;;;;;45.85;21.90;;;;;;;;;;4972435;28;20047;-77
2024/03/05 02:10:10;;;;;;;44.10;21.60;;;;;;;;;;4956372;29;20059;-77
2024/03/05 02:12:37;;;;;;;39.90;19.63;;;;;;;;;;4960373;29;20429;-77
2024/03/05 02:15:04;;;;;;;49.20;21.95;;;;;;;;;;4943085;29;20136;-78
2024/03/05 02:17:31;;;;;;;43.90;21.17;;;;;;;;;;4964488;28;20095;-78
2024/03/05 02:19:58;;;;;;;47.75;21.15;;;;;;;;;;4948250;29;20111;-78
2024/03/05 02:22:24;;;;;;;45.58;20.88;;;;;;;;;;4960436;28;20722;-78
2024/03/05 02:24:51;;;;;;;44.55;20.77;;;;;;;;;;4966998;29;20051;-78
2024/03/05 02:27:18;;;;;;;43.45;21.35;;;;;;;;;;4970053;28;20102;-78
2024/03/05 02:29:52;;;;;;;45.35;20.50;;;;;;;;;;4954420;29;20103;-78
2024/03/05 02:32:19;;;;;;;49.67;22.58;;;;;;;;;;4955648;29;20075;-78
2024/03/05 02:34:45;;;;;;;43.53;21.60;;;;;;;;;;4954842;29;20054;-78
2024/03/05 02:37:12;;;;;;;43.95;21.00;;;;;;;;;;4953273;29;20070;-78
2024/03/05 02:39:39;;;;;;;47.25;20.67;;;;;;;;;;4969982;29;20063;-79
2024/03/05 02:42:05;;;;;;;39.92;20.38;;;;;;;;;;4967864;28;20586;-78
2024/03/05 02:44:32;;;;;;;48.85;22.20;;;;;;;;;;4968146;28;20051;-76
2024/03/05 02:46:59;;;;;;;48.42;22.67;;;;;;;;;;4966634;28;20051;-78
2024/03/05 02:49:26;;;;;;;45.05;20.98;;;;;;;;;;4970223;29;20197;-78
2024/03/05 02:51:52;;;;;;;51.65;23.30;;;;;;;;;;4946203;29;20055;-76
2024/03/05 02:54:19;;;;;;;45.63;22.45;;;;;;;;;;4954806;29;20470;-77
2024/03/05 02:56:46;;;;;;;49.30;23.90;;;;;;;;;;4963292;29;20055;-77
2024/03/05 02:59:12;;;;;;;46.95;22.33;;;;;;;;;;4968689;29;20307;-78
2024/03/05 03:01:39;;;;;;;48.67;21.55;;;;;;;;;;4968204;29;20058;-76
2024/03/05 03:04:06;;;;;;;49.22;22.50;;;;;;;;;;4960338;29;20453;-77
2024/03/05 03:06:32;;;;;;;51.70;21.83;;;;;;;;;;4961482;29;20134;-77
2024/03/05 03:08:59;;;;;;;51.28;22.40;;;;;;;;;;4956061;29;20051;-75
2024/03/05 03:11:25;;;;;;;45.63;22.40;;;;;;;;;;4955192;29;20119;-76
2024/03/05 03:13:52;;;;;;;49.45;21.85;;;;;;;;;;4953371;29;20474;-76
2024/03/05 03:16:19;;;;;;;51.20;23.05;;;;;;;;;;4938946;29;20066;-76
2024/03/05 03:18:45;;;;;;;50.05;22.67;;;;;;;;;;4956236;29;20055;-77
2024/03/05 03:21:12;;;;;;;45.95;21.42;;;;;;;;;;4955046;28;20079;-77
2024/03/05 03:23:39;;;;;;;58.92;22.23;;;;;;;;;;4961939;29;20724;-77
2024/03/05 03:26:06;;;;;;;50.75;21.17;;;;;;;;;;4948730;29;20134;-76
2024/03/05 03:28:33;;;;;;;52.70;22.15;;;;;;;;;;4951941;29;20051;-77
2024/03/05 03:31:00;;;;;;;46.92;20.55;;;;;;;;;;4952001;29;20119;-77
2024/03/05 03:33:27;;;;;;;45.60;20.80;;;;;;;;;;4954058;29;20065;-77
2024/03/05 03:35:55;;;;;;;50.42;22.38;;;;;;;;;;4954926;29;20083;-76
2024/03/05 03:38:23;;;;;;;48.53;21.52;;;;;;;;;;4970907;29;20055;-77
2024/03/05 03:40:51;;;;;;;54.08;23.17;;;;;;;;;;4969806;29;20059;-78
2024/03/05 03:43:19;;;;;;;48.08;21.90;;;;;;;;;;4970980;29;20055;-78
2024/03/05 03:45:45;;;;;;;49.15;23.17;;;;;;;;;;4972559;28;20051;-77
2024/03/05 03:48:12;;;;;;;49.05;22.55;;;;;;;;;;4971530;29;20557;-77
2024/03/05 03:50:39;;;;;;;45.75;21.95;;;;;;;;;;4954421;29;20062;-78
2024/03/05 03:53:05;;;;;;;49.17;22.60;;;;;;;;;;4954439;29;20059;-79
2024/03/05 03:55:33;;;;;;;52.95;22.42;;;;;;;;;;4954507;29;20059;-79
2024/03/05 03:58:02;;;;;;;49.80;21.95;;;;;;;;;;4953580;29;20070;-79
2024/03/05 04:00:29;;;;;;;54.17;23.83;;;;;;;;;;4968816;29;20051;-80
2024/03/05 04:02:56;;;;;;;55.85;22.33;;;;;;;;;;4961116;28;20082;-79
2024/03/05 04:05:24;;;;;;;44.45;21.52;;;;;;;;;;4970549;29;20083;-78
2024/03/05 04:07:51;;;;;;;45.78;21.17;;;;;;;;;;4970690;29;20063;-79
2024/03/05 04:10:17;;;;;;;55.58;23.48;;;;;;;;;;4971130;29;20047;-78
2024/03/05 04:12:44;;;;;;;50.13;22.02;;;;;;;;;;4970541;29;20056;-78
2024/03/05 04:15:12;;;;;;;56.22;24.42;;;;;;;;;;4954565;29;20106;-79
2024/03/05 04:17:39;;;;;;;60.60;23.80;;;;;;;;;;4955629;29;20097;-77
2024/03/05 04:20:08;;;;;;;48.78;21.77;;;;;;;;;;4970315;29;20494;-79
2024/03/05 04:22:39;;;;;;;51.72;23.48;;;;;;;;;;4970748;29;20055;-78
2024/03/05 04:25:06;;;;;;;62.50;26.00;;;;;;;;;;4955510;29;20083;-78
2024/03/05 04:27:35;;;;;;;58.88;23.75;;;;;;;;;;4955343;29;20047;-78
2024/03/05 04:30:03;;;;;;;54.42;23.48;;;;;;;;;;4954789;29;20051;-79
2024/03/05 04:32:30;;;;;;;58.80;25.00;;;;;;;;;;4955093;29;20115;-77
2024/03/05 04:35:06;;;;;;;58.63;23.63;;;;;;;;;;4971373;29;20117;-77
2024/03/05 04:37:33;;;;;;;50.85;23.73;;;;;;;;;;4967558;29;20078;-78
2024/03/05 04:40:00;;;;;;;51.65;23.55;;;;;;;;;;4953443;29;20050;-78
2024/03/05 04:42:26;;;;;;;57.55;24.10;;;;;;;;;;4953562;29;20106;-77
2024/03/05 04:44:53;;;;;;;56.17;23.95;;;;;;;;;;4952250;29;20055;-78
2024/03/05 04:47:20;;;;;;;49.55;22.17;;;;;;;;;;4951787;29;20055;-78
2024/03/05 04:49:47;;;;;;;45.92;21.33;;;;;;;;;;4951132;29;20070;-78
2024/03/05 04:52:14;;;;;;;52.70;23.48;;;;;;;;;;4948687;29;20055;-77
2024/03/05 04:54:41;;;;;;;47.45;20.98;;;;;;;;;;4972590;28;20040;-77
2024/03/05 04:57:08;;;;;;;48.17;22.30;;;;;;;;;;4950783;29;20051;-79
2024/03/05 04:59:34;;;;;;;55.30;23.73;;;;;;;;;;4961642;28;20056;-79
2024/03/05 05:02:01;;;;;;;49.78;22.25;;;;;;;;;;4948638;29;20055;-80
2024/03/05 05:04:29;;;;;;;49.40;22.40;;;;;;;;;;4961730;29;20051;-77
2024/03/05 05:06:56;;;;;;;49.00;23.33;;;;;;;;;;4963075;28;20058;-77
2024/03/05 05:09:22;;;;;;;50.85;22.95;;;;;;;;;;4963665;28;20497;-76
2024/03/05 05:11:51;;;;;;;45.38;22.65;;;;;;;;;;4964052;28;20087;-78
2024/03/05 05:14:18;;;;;;;48.53;22.40;;;;;;;;;;4966798;29;20497;-78
2024/03/05 05:16:45;;;;;;;54.50;23.20;;;;;;;;;;4967045;29;20059;-77
2024/03/05 05:19:14;;;;;;;57.35;24.23;;;;;;;;;;4948940;29;20083;-78
2024/03/05 05:21:41;;;;;;;53.45;24.65;;;;;;;;;;4951824;29;20055;-78
2024/03/05 05:24:07;;;;;;;54.30;23.42;;;;;;;;;;4968482;29;20111;-78
2024/03/05 05:26:34;;;;;;;58.92;25.15;;;;;;;;;;4960809;29;20083;-78
2024/03/05 05:29:01;;;;;;;50.65;23.98;;;;;;;;;;4944699;29;20086;-78
2024/03/05 05:31:27;;;;;;;50.72;22.98;;;;;;;;;;4958846;29;20325;-79
2024/03/05 05:33:57;;;;;;;53.40;23.38;;;;;;;;;;4968557;29;20090;-78
2024/03/05 05:36:24;;;;;;;53.47;24.83;;;;;;;;;;4949322;29;20084;-77
2024/03/05 05:38:50;;;;;;;57.47;24.10;;;;;;;;;;4967671;28;20059;-79
2024/03/05 05:41:18;;;;;;;59.10;24.77;;;;;;;;;;4968888;28;20047;-77
2024/03/05 05:43:45;;;;;;;55.38;23.60;;;;;;;;;;4959440;28;20492;-78
2024/03/05 05:46:14;;;;;;;58.85;23.67;;;;;;;;;;4959072;28;20150;-79
2024/03/05 05:48:42;;;;;;;57.53;24.95;;;;;;;;;;4967967;28;20051;-77
2024/03/05 05:51:13;;;;;;;58.83;23.92;;;;;;;;;;4958275;28;20051;-77
2024/03/05 05:53:40;;;;;;;61.67;25.45;;;;;;;;;;4957397;28;20054;-77
2024/03/05 05:56:06;;;;;;;61.63;24.02;;;;;;;;;;4942430;29;20115;-78
2024/03/05 05:58:33;;;;;;;62.67;25.48;;;;;;;;;;4940388;29;20075;-78
2024/03/05 06:01:04;;;;;;;59.88;24.75;;;;;;;;;;4947330;29;20055;-78
2024/03/05 06:03:31;;;;;;;61.15;25.27;;;;;;;;;;4943792;29;20051;-78
2024/03/05 06:05:58;;;;;;;62.47;23.50;;;;;;;;;;4953163;28;20470;-77
2024/03/05 06:08:25;;;;;;;62.92;23.17;;;;;;;;;;4955554;28;20142;-77
2024/03/05 06:10:52;;;;;;;67.07;26.20;;;;;;;;;;4968219;28;20536;-77
2024/03/05 06:13:20;;;;;;;65.32;24.85;;;;;;;;;;4965423;28;20057;-78
2024/03/05 06:15:48;;;;;;;51.50;23.67;;;;;;;;;;4981612;28;20054;-78
2024/03/05 06:18:15;;;;;;;58.03;23.30;;;;;;;;;;4949264;29;20052;-77
2024/03/05 06:20:45;;;;;;;55.45;24.63;;;;;;;;;;4938498;29;20639;-78
2024/03/05 06:23:12;;;;;;;51.72;22.02;;;;;;;;;;4970525;28;20054;-78
2024/03/05 06:25:39;;;;;;;55.03;23.63;;;;;;;;;;4950590;29;20055;-77
2024/03/05 06:28:09;;;;;;;54.45;23.10;;;;;;;;;;4958575;28;20051;-77
2024/03/05 06:30:36;;;;;;;51.95;22.73;;;;;;;;;;4941715;29;20075;-76
2024/03/05 06:33:08;;;;;;;52.22;22.15;;;;;;;;;;4940961;29;20071;-78
2024/03/05 06:35:35;;;;;;;48.70;20.55;;;;;;;;;;4946833;29;20498;-77
2024/03/05 06:38:03;;;;;;;46.47;19.75;;;;;;;;;;4960127;29;20062;-78
2024/03/05 06:40:31;;;;;;;48.80;21.45;;;;;;;;;;4968736;28;20437;-78
2024/03/05 06:43:04;;;;;;;48.90;20.10;;;;;;;;;;4959164;28;20127;-77
2024/03/05 06:45:33;;;;;;;47.35;20.42;;;;;;;;;;4947730;28;20047;-80
2024/03/05 06:48:01;;;;;;;45.88;20.25;;;;;;;;;;4946053;29;20071;-78
2024/03/05 06:50:34;;;;;;;44.42;20.60;;;;;;;;;;4967622;28;20494;-76
2024/03/05 06:58:44;;;;;;;42.85;21.27;;;;;;;;;;4967420;28;20146;-77
2024/03/05 07:01:13;;;;;;;46.47;20.17;;;;;;;;;;4961404;28;20084;-77
2024/03/05 07:03:41;;;;;;;46.28;21.75;;;;;;;;;;4956116;28;20047;-76
2024/03/05 07:06:08;;;;;;;50.60;21.77;;;;;;;;;;4957377;28;20051;-78
2024/03/05 07:08:35;;;;;;;47.20;22.15;;;;;;;;;;4938787;29;20063;-77
2024/03/05 07:11:05;;;;;;;53.60;22.23;;;;;;;;;;4954478;29;20085;-78
2024/03/05 07:13:32;;;;;;;47.78;21.77;;;;;;;;;;4952886;28;20065;-76
2024/03/05 07:16:02;;;;;;;54.70;25.60;;;;;;;;;;4934072;28;20055;-76
2024/03/05 07:18:28;;;;;;;58.63;25.77;;;;;;;;;;4951995;28;20182;-77
2024/03/05 07:20:56;;;;;;;57.63;25.10;;;;;;;;;;4969189;28;20052;-76
2024/03/05 07:23:22;;;;;;;61.53;24.30;;;;;;;;;;4950227;28;20087;-77
2024/03/05 07:25:49;;;;;;;54.53;25.08;;;;;;;;;;4965049;28;20138;-76
2024/03/05 07:28:15;;;;;;;53.17;22.35;;;;;;;;;;4950455;28;20051;-76
2024/03/05 07:30:42;;;;;;;63.88;24.75;;;;;;;;;;4952352;28;20051;-77
2024/03/05 07:33:09;;;;;;;59.30;24.02;;;;;;;;;;4933394;29;20055;-76
2024/03/05 07:35:36;;;;;;;54.97;23.65;;;;;;;;;;4950144;28;20135;-76
2024/03/05 07:38:02;;;;;;;50.72;23.05;;;;;;;;;;4952338;28;20094;-76
2024/03/05 07:40:29;;;;;;;52.60;23.42;;;;;;;;;;4934661;28;20051;-76
2024/03/05 07:42:56;;;;;;;57.78;23.08;;;;;;;;;;4946482;28;20566;-76
2024/03/05 07:45:22;;;;;;;52.47;22.08;;;;;;;;;;4936766;29;20070;-76
2024/03/05 07:47:50;;;;;;;46.30;21.55;;;;;;;;;;4950327;28;20425;-76
2024/03/05 07:50:16;;;;;;;49.30;22.10;;;;;;;;;;4934321;28;20130;-76
2024/03/05 07:52:44;;;;;;;58.28;22.33;;;;;;;;;;4952561;28;20075;-76
2024/03/05 07:55:16;;;;;;;48.47;21.50;;;;;;;;;;4954440;28;20070;-77
2024/03/05 07:57:56;;;;;;;45.60;21.25;;;;;;;;;;4936837;28;20059;-76
2024/03/05 08:00:23;;;;;;;57.00;22.67;;;;;;;;;;4959669;28;20050;-76
2024/03/05 08:02:53;;;;;;;45.78;21.00;;;;;;;;;;4979105;28;20067;-80
2024/03/05 08:05:23;;;;;;;47.80;22.65;;;;;;;;;;4951134;28;20062;-78
2024/03/05 08:07:50;;;;;;;51.40;22.05;;;;;;;;;;4962629;28;20142;-77
2024/03/05 08:10:17;;;;;;;51.08;20.92;;;;;;;;;;4945382;28;20047;-77
2024/03/05 08:12:44;;;;;;;53.30;23.20;;;;;;;;;;4945363;28;20061;-77
2024/03/05 08:15:18;;;;;;;45.40;20.23;;;;;;;;;;4949980;28;20050;-77
2024/03/05 08:17:47;;;;;;;;;;;;;;;;;;4986346;28;20078;-76
2024/03/05 08:20:14;;;;;;;46.53;19.55;;;;;;;;;;4984241;28;19922;-76
2024/03/05 08:22:42;;;;;;;57.00;23.38;;;;;;;;;;4967465;28;20102;-78
2024/03/05 08:25:09;;;;;;;48.60;21.02;;;;;;;;;;4962403;28;20051;-79
2024/03/05 08:27:39;;;;;;;52.20;23.77;;;;;;;;;;4946222;29;20130;-78
2024/03/05 08:30:08;;;;;;;47.67;22.52;;;;;;;;;;4950980;28;20079;-77
2024/03/05 08:32:36;;;;;;;51.17;21.98;;;;;;;;;;4974168;28;20051;-79
2024/03/05 08:35:03;;;;;;;51.35;21.95;;;;;;;;;;4946379;28;20066;-80
2024/03/05 08:37:30;;;;;;;50.65;20.85;;;;;;;;;;4964705;28;20521;-77
2024/03/05 08:39:57;;;;;;;58.15;25.08;;;;;;;;;;4951068;28;20051;-77
2024/03/05 08:42:24;;;;;;;40.22;16.98;;;;;;;;;;4966995;28;20067;-79
2024/03/05 08:44:50;;;;;;;28.75;13.35;;;;;;;;;;4966132;28;20983;-79
2024/03/05 08:47:17;;;;;;;18.45;8.52;;;;;;;;;;4951418;28;20051;-78
2024/03/05 08:49:44;;;;;;;21.50;10.05;;;;;;;;;;4968522;28;20508;-80
2024/03/05 08:52:12;;;;;;;22.33;10.23;;;;;;;;;;4954419;28;20061;-79
2024/03/05 08:54:39;;;;;;;21.30;10.75;;;;;;;;;;4966798;28;20073;-79
2024/03/05 08:57:08;;;;;;;20.20;10.13;;;;;;;;;;4953979;28;20055;-78
2024/03/05 08:59:34;;;;;;;23.08;10.82;;;;;;;;;;4948620;29;20074;-77
2024/03/05 09:02:01;;;;;;;22.95;11.00;;;;;;;;;;4964097;28;20051;-75
2024/03/05 09:04:28;;;;;;;21.30;10.80;;;;;;;;;;4983342;28;20099;-79
2024/03/05 09:06:55;;;;;;;22.17;10.63;;;;;;;;;;4981684;28;20051;-78
2024/03/05 09:09:22;;;;;;;19.15;9.85;;;;;;;;;;4968920;28;20040;-78
2024/03/05 09:11:48;;;;;;;14.95;8.52;;;;;;;;;;4965458;28;20054;-78
2024/03/05 09:14:15;;;;;;;17.40;9.30;;;;;;;;;;4966891;28;20032;-77
2024/03/05 09:16:42;;;;;;;14.23;8.52;;;;;;;;;;4967505;28;20062;-78
2024/03/05 09:19:10;;;;;;;17.00;10.48;;;;;;;;;;4969482;28;20047;-78
2024/03/05 09:21:37;;;;;;;17.65;10.10;;;;;;;;;;4968564;28;20115;-78
2024/03/05 09:24:06;;;;;;;18.40;10.02;;;;;;;;;;4951421;28;20090;-78
2024/03/05 09:26:33;;;;;;;19.58;9.80;;;;;;;;;;4965223;28;20071;-79
2024/03/05 09:28:59;;;;;;;19.42;9.85;;;;;;;;;;4953799;28;20594;-79
2024/03/05 09:31:26;;;;;;;20.27;10.02;;;;;;;;;;4973784;28;20047;-79
2024/03/05 09:33:53;;;;;;;22.52;10.38;;;;;;;;;;4956835;28;20151;-80
2024/03/05 09:36:20;;;;;;;20.05;10.35;;;;;;;;;;4953032;28;20055;-78
2024/03/05 09:38:47;;;;;;;17.33;9.82;;;;;;;;;;4988679;28;20086;-78
2024/03/05 09:41:14;;;;;;;19.83;11.15;;;;;;;;;;4969384;28;20031;-79
2024/03/05 09:43:45;;;;;;;21.23;10.55;;;;;;;;;;4953235;28;20078;-79
2024/03/05 09:46:12;;;;;;;17.45;10.40;;;;;;;;;;4969998;28;20118;-80
2024/03/05 09:48:39;;;;;;;18.08;10.05;;;;;;;;;;4955736;29;20075;-80
2024/03/05 09:51:15;;;;;;;16.55;9.68;;;;;;;;;;4964948;28;20055;-79
2024/03/05 09:53:42;;;;;;;15.15;9.43;;;;;;;;;;4952109;29;20055;-78
2024/03/05 09:56:08;;;;;;;16.45;8.82;;;;;;;;;;4951569;28;20051;-78
2024/03/05 09:58:36;;;;;;;17.48;10.02;;;;;;;;;;4966229;28;20055;-78
2024/03/05 10:01:03;;;;;;;17.08;9.02;;;;;;;;;;4966643;28;20070;-78
2024/03/05 10:03:30;;;;;;;17.33;9.85;;;;;;;;;;4964977;28;20047;-78
2024/03/05 10:05:57;;;;;;;15.25;8.30;;;;;;;;;;4948843;28;20047;-78
2024/03/05 10:08:23;;;;;;;18.10;9.95;;;;;;;;;;4948910;29;20054;-78
2024/03/05 10:10:59;;;;;;;15.63;8.95;;;;;;;;;;4948977;29;20058;-79
2024/03/05 10:13:29;;;;;;;19.08;10.02;;;;;;;;;;4961789;28;20114;-80
2024/03/05 10:16:15;;;;;;;16.30;9.95;;;;;;;;;;4948649;29;20083;-79
2024/03/05 10:18:42;;;;;;;19.42;10.27;;;;;;;;;;4967287;28;20154;-78
2024/03/05 10:21:14;;;;;;;19.45;11.35;;;;;;;;;;4957434;28;20134;-77
2024/03/05 10:23:40;;;;;;;15.90;10.15;;;;;;;;;;4965674;28;20122;-77
2024/03/05 10:26:20;;;;;;;14.75;8.75;;;;;;;;;;4953493;28;20079;-78
2024/03/05 10:28:47;;;;;;;16.00;9.52;;;;;;;;;;4937303;28;20090;-79
2024/03/05 10:31:34;;;;;;;20.83;10.50;;;;;;;;;;4955423;28;20047;-79
2024/03/05 10:34:00;;;;;;;16.60;9.75;;;;;;;;;;4954898;28;20063;-79
2024/03/05 10:36:28;;;;;;;23.83;12.27;;;;;;;;;;4938689;29;20075;-81
2024/03/05 10:38:55;;;;;;;17.58;11.57;;;;;;;;;;4940983;29;20051;-78
2024/03/05 10:41:22;;;;;;;16.85;11.25;;;;;;;;;;4958164;28;20051;-78
2024/03/05 10:43:55;;;;;;;19.00;10.63;;;;;;;;;;4960618;29;20054;-79
2024/03/05 10:46:22;;;;;;;18.45;10.43;;;;;;;;;;4944420;29;20050;-78
2024/03/05 10:48:54;;;;;;;18.90;11.05;;;;;;;;;;4962070;29;20066;-78
2024/03/05 10:51:23;;;;;;;21.10;11.00;;;;;;;;;;4942824;29;20051;-79
2024/03/05 10:53:50;;;;;;;15.38;9.35;;;;;;;;;;4949657;29;20059;-77
2024/03/05 10:56:17;;;;;;;11.25;8.05;;;;;;;;;;4966526;28;20075;-78
2024/03/05 11:01:23;;;;;;;10.48;7.20;;;;;;;;;;4948920;29;20047;-78
2024/03/05 11:03:51;;;;;;;9.10;6.32;;;;;;;;;;4937472;29;20085;-80
2024/03/05 11:06:20;;;;;;;10.85;7.03;;;;;;;;;;4934327;29;20059;-76
2024/03/05 11:08:48;;;;;;;9.27;6.28;;;;;;;;;;4950222;28;20135;-78
2024/03/05 11:11:18;;;;;;;8.00;5.88;;;;;;;;;;4956554;29;20090;-77
2024/03/05 11:13:50;;;;;;;8.48;6.10;;;;;;;;;;4945804;29;20062;-77
2024/03/05 11:16:17;;;;;;;8.60;6.10;;;;;;;;;;4948410;29;20053;-77
2024/03/05 11:18:44;;;;;;;8.35;6.07;;;;;;;;;;4951959;29;20051;-77
2024/03/05 11:21:12;;;;;;;9.15;5.20;;;;;;;;;;4944592;29;20055;-77
2024/03/05 11:23:42;;;;;;;7.20;5.57;;;;;;;;;;4965758;29;20075;-78
2024/03/05 11:26:19;;;;;;;9.02;5.53;;;;;;;;;;4977424;28;20051;-76
2024/03/05 11:28:47;;;;;;;6.57;4.95;;;;;;;;;;4945293;29;20450;-82
2024/03/05 11:31:18;;;;;;;5.60;4.50;;;;;;;;;;4935065;29;20047;-81
2024/03/05 11:34:02;;;;;;;6.57;4.65;;;;;;;;;;4969696;28;20055;-77
2024/03/05 11:36:30;;;;;;;4.85;4.15;;;;;;;;;;4961767;29;20055;-77
2024/03/05 11:39:02;;;;;;;6.10;4.82;;;;;;;;;;4947536;29;20058;-79
2024/03/05 11:41:35;;;;;;;5.00;4.28;;;;;;;;;;4981496;28;20086;-78
2024/03/05 11:44:02;;;;;;;6.63;4.57;;;;;;;;;;4965567;29;20058;-79
2024/03/05 11:46:42;;;;;;;5.40;4.10;;;;;;;;;;4967076;29;20117;-76
2024/03/05 11:49:09;;;;;;;5.10;3.90;;;;;;;;;;4959534;29;20043;-80
2024/03/05 11:51:36;;;;;;;6.90;4.70;;;;;;;;;;4934089;29;20061;-79
2024/03/05 11:54:03;;;;;;;6.05;4.43;;;;;;;;;;4959533;29;20055;-77
2024/03/05 11:56:30;;;;;;;6.60;3.83;;;;;;;;;;4963224;28;20494;-77
2024/03/05 11:58:56;;;;;;;5.43;3.78;;;;;;;;;;4962023;28;20090;-78
2024/03/05 12:01:23;;;;;;;6.80;4.47;;;;;;;;;;4965864;28;20086;-78
2024/03/05 12:04:06;;;;;;;7.43;3.60;;;;;;;;;;4949416;29;20084;-77
2024/03/05 12:06:36;;;;;;;4.33;3.37;;;;;;;;;;4946893;29;20052;-79
2024/03/05 12:09:09;;;;;;;4.88;3.22;;;;;;;;;;4939539;29;20287;-80
2024/03/05 12:11:36;;;;;;;5.20;3.95;;;;;;;;;;4950859;29;20055;-76
2024/03/05 12:14:07;;;;;;;5.93;3.50;;;;;;;;;;4951515;29;20394;-77
2024/03/05 12:16:34;;;;;;;5.32;3.35;;;;;;;;;;4935605;29;20086;-77
2024/03/05 12:19:00;;;;;;;3.80;2.95;;;;;;;;;;4931563;29;20694;-76
2024/03/05 12:21:27;;;;;;;3.92;3.10;;;;;;;;;;4932707;29;20137;-77
2024/03/05 12:23:58;;;;;;;4.10;3.17;;;;;;;;;;4940416;29;20062;-77
2024/03/05 12:26:25;;;;;;;6.38;3.42;;;;;;;;;;4954554;28;20621;-78
2024/03/05 12:28:52;;;;;;;3.97;3.20;;;;;;;;;;4975043;28;20066;-77
2024/03/05 12:31:19;;;;;;;5.47;3.05;;;;;;;;;;4960200;28;20130;-77
2024/03/05 12:33:46;;;;;;;5.50;3.85;;;;;;;;;;4969255;28;20066;-77
2024/03/05 12:36:14;;;;;;;5.68;3.85;;;;;;;;;;4937032;29;20182;-77
2024/03/05 12:38:41;;;;;;;5.03;3.30;;;;;;;;;;4935412;29;20114;-76
2024/03/05 12:41:09;;;;;;;4.13;2.92;;;;;;;;;;4953329;29;20083;-81
2024/03/05 12:43:36;;;;;;;6.00;3.25;;;;;;;;;;4951134;29;20407;-76
2024/03/05 12:46:03;;;;;;;4.72;3.42;;;;;;;;;;4944485;29;20083;-75
2024/03/05 12:48:34;;;;;;;5.32;3.50;;;;;;;;;;4973035;28;20058;-76
2024/03/05 12:51:03;;;;;;;5.45;3.47;;;;;;;;;;4979766;28;20521;-76
2024/03/05 12:53:30;;;;;;;6.63;3.70;;;;;;;;;;4947594;28;20059;-77
2024/03/05 12:56:01;;;;;;;5.15;4.05;;;;;;;;;;4950538;29;20057;-77
2024/03/05 12:58:48;;;;;;;5.07;3.95;;;;;;;;;;4932174;29;20502;-77
2024/03/05 13:01:15;;;;;;;5.15;3.40;;;;;;;;;;4963389;28;20062;-77
2024/03/05 13:03:43;;;;;;;6.03;3.20;;;;;;;;;;4935441;29;20134;-79
2024/03/05 13:06:11;;;;;;;4.63;3.50;;;;;;;;;;4949477;28;20074;-77
2024/03/05 13:08:38;;;;;;;4.88;2.92;;;;;;;;;;4944273;29;20106;-78
2024/03/05 13:11:05;;;;;;;4.80;3.10;;;;;;;;;;4949499;29;20217;-78
2024/03/05 13:13:31;;;;;;;4.40;2.80;;;;;;;;;;4983021;28;20094;-79
2024/03/05 13:15:58;;;;;;;4.65;2.88;;;;;;;;;;4969053;29;20051;-78
2024/03/05 13:18:25;;;;;;;2.90;2.38;;;;;;;;;;4951651;29;20119;-79
2024/03/05 13:20:51;;;;;;;2.78;2.30;;;;;;;;;;4967459;28;20066;-77
2024/03/05 13:23:22;;;;;;;3.92;2.40;;;;;;;;;;4951556;29;20051;-77
2024/03/05 13:25:48;;;;;;;3.67;2.72;;;;;;;;;;4957383;28;20079;-77
2024/03/05 13:28:15;;;;;;;3.67;2.38;;;;;;;;;;4975200;28;20049;-79
2024/03/05 13:30:51;;;;;;;3.13;2.05;;;;;;;;;;4944502;29;20084;-78
2024/03/05 13:33:33;;;;;;;2.92;1.92;;;;;;;;;;4963042;28;20047;-79
2024/03/05 13:36:00;;;;;;;3.03;1.58;;;;;;;;;;4949576;28;20079;-78
2024/03/05 13:38:26;;;;;;;2.97;1.80;;;;;;;;;;4971410;28;20061;-76
2024/03/05 13:40:53;;;;;;;2.35;1.90;;;;;;;;;;4965435;28;20125;-77
2024/03/05 13:43:24;;;;;;;2.35;1.60;;;;;;;;;;4945754;28;20065;-77
2024/03/05 13:45:51;;;;;;;1.70;1.58;;;;;;;;;;4972071;28;20066;-76
2024/03/05 13:48:18;;;;;;;4.65;1.90;;;;;;;;;;4956177;28;20075;-76
2024/03/05 13:50:51;;;;;;;1.38;1.25;;;;;;;;;;4934180;29;20449;-76
2024/03/05 13:53:21;;;;;;;1.40;1.20;;;;;;;;;;4935271;28;20059;-76
2024/03/05 13:55:55;;;;;;;1.75;1.55;;;;;;;;;;4949350;28;20091;-76
2024/03/05 13:58:22;;;;;;;2.45;1.63;;;;;;;;;;4951345;28;20078;-76
2024/03/05 14:00:48;;;;;;;1.38;1.15;;;;;;;;;;4951501;28;20473;-76
2024/03/05 14:03:15;;;;;;;5.15;1.67;;;;;;;;;;4934196;28;20047;-77
2024/03/05 14:05:42;;;;;;;1.35;1.20;;;;;;;;;;4952488;28;20509;-76
2024/03/05 14:08:11;;;;;;;2.03;1.40;;;;;;;;;;4938035;29;20501;-76
2024/03/05 14:10:39;;;;;;;4.22;1.95;;;;;;;;;;4938177;28;20051;-76
2024/03/05 14:13:20;;;;;;;1.85;1.20;;;;;;;;;;4953017;28;20501;-76
2024/03/05 14:15:52;;;;;;;1.23;1.02;;;;;;;;;;4975727;28;20528;-76
2024/03/05 14:18:19;;;;;;;1.20;1.00;;;;;;;;;;4953523;28;20070;-75
2024/03/05 14:20:46;;;;;;;4.05;1.33;;;;;;;;;;4937269;29;20078;-76
2024/03/05 14:23:12;;;;;;;1.58;1.20;;;;;;;;;;4953414;28;20138;-75
2024/03/05 14:25:39;;;;;;;6.68;1.80;;;;;;;;;;4952911;28;20098;-75
2024/03/05 14:28:06;;;;;;;3.92;1.58;;;;;;;;;;4953397;28;20074;-76
2024/03/05 14:30:32;;;;;;;2.17;1.70;;;;;;;;;;4937089;29;20130;-76
2024/03/05 14:32:59;;;;;;;4.10;1.88;;;;;;;;;;4935137;28;20087;-76
2024/03/05 14:35:26;;;;;;;3.28;2.00;;;;;;;;;;4973974;28;20055;-76